Terminal Aerodrome Forecast
Issued by NWS Tampa Bay Area, FL

Home | Current Version | Previous Version | Text Only | Print | Product List | Glossary On
Versions: 1 2 3 4 5 6 7 8 9 10 11 12 13
000
FTUS42 KTBW 252332
TAFSRQ
TAF
KSRQ 252332Z 2600/2624 26005KT P6SM VCSH SCT060 BKN090 BKN250
     FM260200 VRB03KT P6SM SCT035 BKN200
     FM260800 09006KT P6SM SCT250
     FM261900 18007KT P6SM SCT045 BKN250
     FM262100 27007KT P6SM VCTS SCT050CB BKN250=

USA.gov is the U.S. government's official web portal to all federal, state and local government web resources and services.